Terminal Aerodrome Forecast
Issued by NWS

Current Version | Previous Version | Text Only | Print | Product List | Glossary On
Versions: 1 2 3 4 5 6 7 8 9 10 11 12 13 14 15 16 17 18 19 20 21 22 23 24 25 26 27 28 29 30 31 32 33 34
000
FTUS45 KLKN 252300 AAA
TAFEKO
TAF AMD
KEKO 252351Z 2600/2624 22015G25KT P6SM SCT250
      TEMPO 2600/2603 27020G30KT
     FM260300 VRB06KT P6SM SCT250
     FM262100 21008KT P6SM SCT080 SCT250=

USA.gov is the U.S. government's official web portal to all federal, state and local government web resources and services.